Time;durP1;ratioP1;P1;durP2;ratioP2;P2;SDS_P1;SDS_P2;PMS_P1;PMS_P2;Temp;Humidity;BMP_temperature;BMP_pressure;BME280_temperature;BME280_humidity;BME280_pressure;Samples;Min_cycle;Max_cycle;Signal;HPM_P1;HPM_P2
2020/12/16 00:00:21;;;;;;;4.28;3.88;;;10.60;99.90;;;;;;5113810;27;20208;-76
2020/12/16 00:02:47;;;;;;;5.00;4.50;;;10.60;99.90;;;;;;5118471;27;20192;-75
2020/12/16 00:05:13;;;;;;;3.70;3.40;;;10.60;99.90;;;;;;5123025;27;20195;-75
2020/12/16 00:07:40;;;;;;;4.05;3.65;;;10.60;99.90;;;;;;5132006;27;20212;-76
2020/12/16 00:10:09;;;;;;;4.70;4.25;;;10.60;99.90;;;;;;5121641;27;20196;-76
2020/12/16 00:12:38;;;;;;;4.50;4.10;;;10.50;99.90;;;;;;5113839;28;20193;-76
2020/12/16 00:15:06;;;;;;;4.65;4.15;;;10.60;99.90;;;;;;5115001;27;20200;-77
2020/12/16 00:17:33;;;;;;;4.90;3.75;;;10.60;99.90;;;;;;5113161;28;20197;-75
2020/12/16 00:19:59;;;;;;;4.63;4.18;;;10.50;99.90;;;;;;5122968;27;20233;-75
2020/12/16 00:22:25;;;;;;;4.78;4.38;;;10.60;99.90;;;;;;5113537;28;20205;-76
2020/12/16 00:24:51;;;;;;;5.18;4.68;;;10.50;99.90;;;;;;5118899;27;20199;-76
2020/12/16 00:27:18;;;;;;;3.75;3.45;;;10.50;99.90;;;;;;5126283;27;20216;-75
2020/12/16 00:29:44;;;;;;;4.05;3.65;;;10.50;99.90;;;;;;5123920;27;20245;-76
2020/12/16 00:32:11;;;;;;;4.78;4.00;;;10.50;99.90;;;;;;5133771;27;20275;-76
2020/12/16 00:34:38;;;;;;;4.38;3.92;;;10.50;99.90;;;;;;5114928;27;20545;-75
2020/12/16 00:37:04;;;;;;;5.25;4.72;;;10.50;99.90;;;;;;5116911;27;20242;-76
2020/12/16 00:39:30;;;;;;;4.55;4.15;;;10.50;99.90;;;;;;5113665;27;20236;-76
2020/12/16 00:41:56;;;;;;;5.45;5.03;;;10.50;99.90;;;;;;5112846;27;20203;-75
2020/12/16 00:44:23;;;;;;;4.90;4.50;;;10.50;99.90;;;;;;5124301;27;20261;-76
2020/12/16 00:46:49;;;;;;;4.43;4.03;;;10.50;99.90;;;;;;5119901;27;20228;-75
2020/12/16 00:49:16;;;;;;;4.82;4.32;;;10.50;99.90;;;;;;5120736;27;20196;-76
2020/12/16 00:51:43;;;;;;;4.85;4.38;;;10.50;99.90;;;;;;5118404;27;20208;-76
2020/12/16 00:54:09;;;;;;;4.90;4.47;;;10.40;99.90;;;;;;5133041;27;20184;-74
2020/12/16 00:56:35;;;;;;;4.53;4.13;;;10.40;99.90;;;;;;5126816;27;20533;-75
2020/12/16 00:59:01;;;;;;;4.70;4.07;;;10.40;99.90;;;;;;5114753;27;20193;-75
2020/12/16 01:01:29;;;;;;;5.03;4.43;;;10.40;99.90;;;;;;5112758;28;20204;-75
2020/12/16 01:03:55;;;;;;;5.25;4.75;;;10.40;99.90;;;;;;5112414;28;20725;-75
2020/12/16 01:06:22;;;;;;;5.45;4.95;;;10.40;99.90;;;;;;5118021;27;20529;-76
2020/12/16 01:08:49;;;;;;;4.43;4.05;;;10.40;99.90;;;;;;5111433;28;20214;-74
2020/12/16 01:11:15;;;;;;;8.60;5.22;;;10.40;99.90;;;;;;5112556;28;20193;-74
2020/12/16 01:13:41;;;;;;;5.85;5.00;;;10.40;99.90;;;;;;5111281;28;20214;-75
2020/12/16 01:16:08;;;;;;;4.78;4.38;;;10.40;99.90;;;;;;5114850;27;20289;-74
2020/12/16 01:18:34;;;;;;;4.15;3.75;;;10.40;99.90;;;;;;5113859;27;20192;-75
2020/12/16 01:21:00;;;;;;;6.60;5.95;;;10.40;99.90;;;;;;5116242;27;20203;-75
2020/12/16 01:23:27;;;;;;;6.10;5.35;;;10.30;99.90;;;;;;5112512;28;20208;-75
2020/12/16 01:25:54;;;;;;;5.32;4.53;;;10.40;99.90;;;;;;5119854;27;20203;-75
2020/12/16 01:28:21;;;;;;;4.97;4.50;;;10.30;99.90;;;;;;5124302;28;20216;-75
2020/12/16 01:30:47;;;;;;;5.60;5.10;;;10.40;99.90;;;;;;5112721;27;20244;-77
2020/12/16 01:33:14;;;;;;;6.28;5.68;;;10.40;99.90;;;;;;5111828;28;20193;-75
2020/12/16 01:35:40;;;;;;;5.30;4.80;;;10.40;99.90;;;;;;5124669;28;20845;-75
2020/12/16 01:38:06;;;;;;;5.88;4.93;;;10.30;99.90;;;;;;5118775;27;20240;-75
2020/12/16 01:40:33;;;;;;;4.68;4.28;;;10.30;99.90;;;;;;5115804;28;20241;-75
2020/12/16 01:42:59;;;;;;;6.03;5.47;;;10.50;99.90;;;;;;5122410;28;20203;-75
2020/12/16 01:45:26;;;;;;;5.82;4.82;;;10.30;99.90;;;;;;5126292;27;20196;-76
2020/12/16 01:47:52;;;;;;;4.18;3.75;;;10.30;99.90;;;;;;5111746;28;20386;-76
2020/12/16 01:50:19;;;;;;;5.03;4.20;;;10.30;99.90;;;;;;5112150;28;20215;-75
2020/12/16 01:52:47;;;;;;;5.60;5.10;;;10.30;99.90;;;;;;5112461;28;20196;-75
2020/12/16 01:55:14;;;;;;;4.72;4.32;;;10.20;99.90;;;;;;5120585;28;20192;-75
2020/12/16 01:57:45;;;;;;;5.30;4.80;;;10.20;99.90;;;;;;5126183;27;20196;-75
2020/12/16 02:00:13;;;;;;;4.50;4.20;;;10.20;99.90;;;;;;5132503;27;20180;-76
2020/12/16 02:02:44;;;;;;;4.40;3.85;;;10.20;99.90;;;;;;5127670;27;20252;-76
2020/12/16 02:05:12;;;;;;;5.78;5.18;;;10.20;99.90;;;;;;5127233;27;20188;-76
2020/12/16 02:07:40;;;;;;;6.25;4.75;;;10.20;99.90;;;;;;5116745;27;20224;-76
2020/12/16 02:10:06;;;;;;;6.28;5.65;;;10.20;99.90;;;;;;5117169;27;20200;-76
2020/12/16 02:12:35;;;;;;;7.10;4.82;;;10.20;99.90;;;;;;5117783;27;20257;-76
2020/12/16 02:15:03;;;;;;;5.00;4.60;;;10.20;99.90;;;;;;5120499;27;20200;-76
2020/12/16 02:17:29;;;;;;;4.63;4.22;;;10.20;99.90;;;;;;5136477;27;20187;-77
2020/12/16 02:19:57;;;;;;;4.88;4.00;;;10.20;99.90;;;;;;5136324;27;20223;-76
2020/12/16 02:22:24;;;;;;;4.78;4.05;;;10.10;99.90;;;;;;5119692;27;20197;-76
2020/12/16 02:24:58;;;;;;;5.45;4.95;;;10.20;99.90;;;;;;5119864;27;20644;-76
2020/12/16 02:27:24;;;;;;;6.43;5.18;;;10.20;99.90;;;;;;5115358;28;20210;-76
2020/12/16 02:29:51;;;;;;;5.18;4.60;;;10.20;99.90;;;;;;5126593;27;20188;-76
2020/12/16 02:32:18;;;;;;;6.70;6.05;;;10.10;99.90;;;;;;5118228;27;20200;-75
2020/12/16 02:34:45;;;;;;;5.13;4.63;;;10.10;99.90;;;;;;5120031;27;20196;-75
2020/12/16 02:37:11;;;;;;;6.20;5.50;;;10.10;99.90;;;;;;5122109;27;20197;-76
2020/12/16 02:39:37;;;;;;;5.32;4.82;;;10.20;99.90;;;;;;5117872;27;20224;-76
2020/12/16 02:42:06;;;;;;;6.32;5.72;;;10.20;99.90;;;;;;5118599;27;20193;-76
2020/12/16 02:44:32;;;;;;;6.45;5.85;;;10.20;99.90;;;;;;5117396;27;20200;-76
2020/12/16 02:47:00;;;;;;;6.60;5.00;;;10.10;99.90;;;;;;5129049;27;20287;-76
2020/12/16 02:49:27;;;;;;;5.85;5.25;;;10.10;99.90;;;;;;5136104;27;20213;-76
2020/12/16 02:51:54;;;;;;;6.35;5.18;;;10.10;99.90;;;;;;5127475;27;20193;-76
2020/12/16 02:54:20;;;;;;;6.22;5.63;;;10.10;99.90;;;;;;5120272;27;20205;-78
2020/12/16 02:56:50;;;;;;;5.22;4.72;;;10.10;99.90;;;;;;5115051;28;20803;-77
2020/12/16 02:59:21;;;;;;;6.95;5.38;;;10.10;99.90;;;;;;5134276;27;20196;-77
2020/12/16 03:01:48;;;;;;;6.45;5.80;;;10.10;99.90;;;;;;5125017;27;20320;-77
2020/12/16 03:04:15;;;;;;;6.30;5.70;;;10.10;99.90;;;;;;5115847;27;20204;-77
2020/12/16 03:06:41;;;;;;;6.10;5.60;;;10.10;99.90;;;;;;5116044;27;20646;-77
2020/12/16 03:09:08;;;;;;;6.28;5.68;;;10.10;99.90;;;;;;5114585;28;20260;-77
2020/12/16 03:11:34;;;;;;;6.20;5.65;;;10.10;99.90;;;;;;5121571;27;20535;-77
2020/12/16 03:14:01;;;;;;;6.57;5.70;;;10.20;99.90;;;;;;5126747;27;20196;-76
2020/12/16 03:16:28;;;;;;;5.90;5.40;;;10.20;99.90;;;;;;5124230;27;20285;-76
2020/12/16 03:18:54;;;;;;;6.60;5.93;;;10.10;99.90;;;;;;5118446;27;20536;-76
2020/12/16 03:21:21;;;;;;;8.90;6.90;;;10.10;99.90;;;;;;5116188;27;20220;-77
2020/12/16 03:23:48;;;;;;;7.95;6.60;;;10.10;99.90;;;;;;5127493;27;20192;-76
2020/12/16 03:26:14;;;;;;;6.55;5.50;;;10.10;99.90;;;;;;5127728;27;20197;-76
2020/12/16 03:28:40;;;;;;;8.48;6.30;;;10.10;99.90;;;;;;5126053;27;20212;-76
2020/12/16 03:31:07;;;;;;;6.88;5.97;;;10.10;99.90;;;;;;5119732;27;20193;-76
2020/12/16 03:33:34;;;;;;;7.13;5.80;;;10.10;99.90;;;;;;5117751;27;20192;-77
2020/12/16 03:36:00;;;;;;;6.00;5.47;;;10.10;99.90;;;;;;5114419;27;20636;-76
2020/12/16 03:38:26;;;;;;;7.10;6.05;;;10.10;99.90;;;;;;5123897;27;20270;-76
2020/12/16 03:40:53;;;;;;;6.80;6.13;;;10.10;99.90;;;;;;5121712;27;20220;-77
2020/12/16 03:43:19;;;;;;;8.73;7.05;;;10.10;99.90;;;;;;5127135;27;20582;-77
2020/12/16 03:45:45;;;;;;;7.72;6.93;;;10.10;99.90;;;;;;5132674;27;20272;-77
2020/12/16 03:48:11;;;;;;;7.05;6.35;;;10.10;99.90;;;;;;5129901;27;20229;-77
2020/12/16 03:50:38;;;;;;;6.68;5.95;;;10.10;99.90;;;;;;5125317;27;20673;-77
2020/12/16 03:53:05;;;;;;;7.38;6.68;;;10.10;99.90;;;;;;5117490;27;20201;-77
2020/12/16 03:55:31;;;;;;;7.43;6.72;;;10.10;99.90;;;;;;5113840;27;20192;-78
2020/12/16 03:57:57;;;;;;;6.85;6.15;;;10.10;99.90;;;;;;5128136;27;20632;-77
2020/12/16 04:00:23;;;;;;;7.18;6.18;;;10.00;99.90;;;;;;5130436;27;20203;-76
2020/12/16 04:02:50;;;;;;;7.95;7.00;;;10.00;99.90;;;;;;5122409;27;20204;-77
2020/12/16 04:05:16;;;;;;;7.65;6.93;;;10.00;99.90;;;;;;5123487;27;20211;-75
2020/12/16 04:07:43;;;;;;;8.15;6.60;;;10.00;99.90;;;;;;5120782;27;20204;-76
2020/12/16 04:10:11;;;;;;;7.53;6.38;;;10.00;99.90;;;;;;5114820;27;20197;-76
2020/12/16 04:12:38;;;;;;;6.68;5.70;;;10.00;99.90;;;;;;5122610;27;20216;-76
2020/12/16 04:15:05;;;;;;;6.80;5.53;;;10.00;99.90;;;;;;5132746;27;20203;-76
2020/12/16 04:17:32;;;;;;;10.40;7.40;;;10.20;99.90;;;;;;5119192;27;20196;-77
2020/12/16 04:19:59;;;;;;;7.53;6.72;;;9.90;99.90;;;;;;5114479;27;20200;-77
2020/12/16 04:22:25;;;;;;;7.25;6.55;;;9.90;99.90;;;;;;5121701;27;20524;-76
2020/12/16 04:24:52;;;;;;;7.18;6.40;;;10.00;99.90;;;;;;5120019;27;20184;-77
2020/12/16 04:27:18;;;;;;;8.50;6.70;;;10.00;99.90;;;;;;5132123;27;20226;-77
2020/12/16 04:29:45;;;;;;;6.97;6.28;;;9.90;99.90;;;;;;5120576;27;20604;-77
2020/12/16 04:32:12;;;;;;;9.27;7.25;;;9.90;99.90;;;;;;5122562;27;20205;-76
2020/12/16 04:34:38;;;;;;;7.72;7.00;;;9.90;99.90;;;;;;5113123;28;20431;-76
2020/12/16 04:37:04;;;;;;;8.25;7.25;;;9.90;99.90;;;;;;5113126;27;20268;-76
2020/12/16 04:39:31;;;;;;;7.35;6.60;;;9.90;99.90;;;;;;5117693;27;20221;-76
2020/12/16 04:41:58;;;;;;;8.45;7.60;;;9.90;99.90;;;;;;5118116;27;20921;-76
2020/12/16 04:44:25;;;;;;;8.32;7.20;;;9.80;99.90;;;;;;5118868;27;20200;-76
2020/12/16 04:46:51;;;;;;;8.00;6.60;;;9.80;99.90;;;;;;5112418;28;20188;-76
2020/12/16 04:49:17;;;;;;;7.90;6.90;;;9.90;99.90;;;;;;5121434;27;20189;-75
2020/12/16 04:51:45;;;;;;;8.18;7.13;;;9.80;99.90;;;;;;5121035;27;20208;-76
2020/12/16 04:54:12;;;;;;;7.70;6.93;;;9.80;99.90;;;;;;5114018;27;20524;-76
2020/12/16 04:56:42;;;;;;;9.18;7.05;;;9.80;99.90;;;;;;5118039;27;20205;-75
2020/12/16 04:59:09;;;;;;;8.52;7.60;;;9.80;99.90;;;;;;5118663;27;20607;-75
2020/12/16 05:01:40;;;;;;;7.50;6.65;;;9.80;99.90;;;;;;5117584;27;20196;-75
2020/12/16 05:04:06;;;;;;;7.30;6.50;;;9.80;99.90;;;;;;5112746;28;20201;-76
2020/12/16 05:06:34;;;;;;;7.30;6.45;;;9.80;99.90;;;;;;5131475;27;20654;-77
2020/12/16 05:09:06;;;;;;;6.75;5.63;;;9.80;99.90;;;;;;5116876;27;20583;-77
2020/12/16 05:11:43;;;;;;;8.02;6.18;;;9.70;99.90;;;;;;5122514;27;20204;-77
2020/12/16 05:14:16;;;;;;;7.75;6.95;;;9.80;99.90;;;;;;5130454;27;20220;-77
2020/12/16 05:17:00;;;;;;;7.35;6.53;;;9.80;99.90;;;;;;5112665;28;20227;-77
2020/12/16 05:19:36;;;;;;;9.43;7.05;;;9.70;99.90;;;;;;5118667;27;20197;-77
2020/12/16 05:22:28;;;;;;;7.95;5.85;;;9.70;99.90;;;;;;5126818;27;20200;-75
2020/12/16 05:24:56;;;;;;;7.80;7.03;;;9.70;99.90;;;;;;5112583;27;20193;-75
2020/12/16 05:27:25;;;;;;;7.18;6.47;;;9.70;99.90;;;;;;5114154;28;20220;-76
2020/12/16 05:29:55;;;;;;;7.75;6.95;;;9.70;99.90;;;;;;5121553;27;20628;-76
2020/12/16 05:32:27;;;;;;;7.80;6.28;;;9.70;99.90;;;;;;5114479;27;20271;-75
2020/12/16 05:34:54;;;;;;;6.97;6.28;;;9.70;99.90;;;;;;5112055;28;20196;-75
2020/12/16 05:37:41;;;;;;;7.22;6.45;;;9.70;99.90;;;;;;5116679;27;20287;-75
2020/12/16 05:40:11;;;;;;;8.18;6.55;;;9.60;99.90;;;;;;5115181;28;20224;-75
2020/12/16 05:42:38;;;;;;;7.63;6.15;;;9.60;99.90;;;;;;5115211;28;20205;-75
2020/12/16 05:45:11;;;;;;;6.97;6.25;;;9.60;99.90;;;;;;5116325;28;20204;-75
2020/12/16 05:47:39;;;;;;;6.55;5.93;;;9.60;99.90;;;;;;5126294;27;20224;-76
2020/12/16 05:50:16;;;;;;;6.80;6.10;;;9.60;99.90;;;;;;5120490;27;20250;-76
2020/12/16 05:52:43;;;;;;;6.32;5.72;;;9.60;99.90;;;;;;5116515;28;20227;-75
2020/12/16 05:55:09;;;;;;;7.30;5.75;;;9.60;99.90;;;;;;5123289;27;20191;-75
2020/12/16 05:57:35;;;;;;;9.10;6.43;;;9.60;99.90;;;;;;5129994;27;20201;-76
2020/12/16 06:00:08;;;;;;;8.40;7.20;;;9.60;99.90;;;;;;5132411;27;20196;-75
2020/12/16 06:02:37;;;;;;;6.57;5.70;;;9.60;99.90;;;;;;5131969;27;20633;-74
2020/12/16 06:05:05;;;;;;;7.00;6.13;;;9.60;99.90;;;;;;5122753;27;20192;-74
2020/12/16 06:07:33;;;;;;;6.80;6.10;;;9.60;99.90;;;;;;5129724;27;20224;-75
2020/12/16 06:10:00;;;;;;;6.00;5.40;;;9.60;99.90;;;;;;5122978;27;20544;-74
2020/12/16 06:12:28;;;;;;;9.60;6.40;;;9.50;99.90;;;;;;5116034;27;20197;-74
2020/12/16 06:15:07;;;;;;;5.70;5.20;;;9.50;99.90;;;;;;5132028;27;20192;-74
2020/12/16 06:17:38;;;;;;;6.43;5.75;;;9.50;99.90;;;;;;5122202;27;20188;-74
2020/12/16 06:20:07;;;;;;;7.05;6.35;;;9.50;99.90;;;;;;5119766;27;20196;-75
2020/12/16 06:22:35;;;;;;;7.05;6.35;;;9.50;99.90;;;;;;5115832;28;20620;-76
2020/12/16 06:25:04;;;;;;;6.88;6.18;;;9.50;99.90;;;;;;5123365;27;20543;-76
2020/12/16 06:27:42;;;;;;;6.47;5.72;;;9.50;99.90;;;;;;5131544;27;20243;-75
2020/12/16 06:30:15;;;;;;;8.30;6.60;;;9.50;99.90;;;;;;5118132;27;20556;-76
2020/12/16 06:32:45;;;;;;;6.82;5.80;;;9.50;99.90;;;;;;5128366;27;20390;-76
2020/12/16 06:35:17;;;;;;;7.63;6.50;;;9.50;99.90;;;;;;5116416;27;20254;-76
2020/12/16 06:37:44;;;;;;;6.95;6.13;;;9.50;99.90;;;;;;5123982;27;20242;-76
2020/12/16 06:40:11;;;;;;;7.00;5.57;;;9.50;99.90;;;;;;5120376;27;20273;-75
2020/12/16 06:42:37;;;;;;;5.95;5.10;;;9.50;99.90;;;;;;5117956;27;20215;-75
2020/12/16 06:45:15;;;;;;;6.20;5.60;;;9.50;99.90;;;;;;5136157;27;20196;-75
2020/12/16 06:47:42;;;;;;;7.30;6.22;;;9.40;99.90;;;;;;5125040;27;20208;-75
2020/12/16 06:50:19;;;;;;;8.07;5.40;;;9.40;99.90;;;;;;5120973;27;20536;-75
2020/12/16 06:52:45;;;;;;;6.68;6.07;;;9.40;99.90;;;;;;5114369;28;20204;-75
2020/12/16 06:55:12;;;;;;;6.75;6.05;;;9.40;99.90;;;;;;5115268;28;20268;-75
2020/12/16 06:57:48;;;;;;;7.63;6.80;;;9.40;99.90;;;;;;5120836;27;20649;-76
2020/12/16 07:00:19;;;;;;;8.68;5.75;;;9.30;99.90;;;;;;5134580;27;20192;-76
2020/12/16 07:02:47;;;;;;;6.82;6.22;;;9.30;99.90;;;;;;5133934;27;20196;-76
2020/12/16 07:05:36;;;;;;;7.35;6.35;;;9.30;99.90;;;;;;5127251;27;20192;-76
2020/12/16 07:08:03;;;;;;;7.68;6.75;;;9.30;99.90;;;;;;5125504;27;20223;-75
2020/12/16 07:10:42;;;;;;;5.85;5.25;;;9.30;99.90;;;;;;5116759;27;20253;-76
2020/12/16 07:13:23;;;;;;;7.43;5.68;;;9.30;99.90;;;;;;5115129;28;20273;-76
2020/12/16 07:15:58;;;;;;;6.75;5.97;;;9.30;99.90;;;;;;5119143;27;20216;-75
2020/12/16 07:18:47;;;;;;;8.13;6.95;;;9.30;99.90;;;;;;5114591;27;20191;-75
2020/12/16 07:21:39;;;;;;;7.45;6.38;;;9.30;99.90;;;;;;5127431;27;20225;-75
2020/12/16 07:24:11;;;;;;;10.90;6.78;;;9.30;99.90;;;;;;5135390;27;20287;-75
2020/12/16 07:26:47;;;;;;;8.15;6.68;;;9.20;99.90;;;;;;5127689;27;20219;-75
2020/12/16 07:29:25;;;;;;;9.30;7.60;;;9.20;99.90;;;;;;5126733;27;20225;-76
2020/12/16 07:32:05;;;;;;;6.43;5.55;;;9.30;99.90;;;;;;5114339;28;20218;-75
2020/12/16 07:34:42;;;;;;;7.95;6.85;;;9.20;99.90;;;;;;5114619;27;20201;-76
2020/12/16 07:37:11;;;;;;;6.93;6.22;;;9.10;99.90;;;;;;5121037;27;20248;-76
2020/12/16 07:39:46;;;;;;;10.10;6.10;;;9.10;99.90;;;;;;5122227;27;20293;-76
2020/12/16 07:42:19;;;;;;;8.10;6.68;;;9.10;99.90;;;;;;5114261;28;20188;-77
2020/12/16 07:44:45;;;;;;;7.18;6.45;;;9.00;99.90;;;;;;5112878;28;20200;-77
2020/12/16 07:47:11;;;;;;;9.90;6.70;;;9.10;99.90;;;;;;5118802;27;20215;-76
2020/12/16 07:49:39;;;;;;;6.95;6.22;;;9.10;99.90;;;;;;5122502;27;20200;-76
2020/12/16 07:52:05;;;;;;;8.95;7.00;;;9.20;99.90;;;;;;5116883;27;20201;-76
2020/12/16 07:54:33;;;;;;;9.65;7.85;;;9.20;99.90;;;;;;5134739;27;20199;-75
2020/12/16 07:57:00;;;;;;;6.63;5.93;;;9.20;99.90;;;;;;5129962;27;20607;-75
2020/12/16 07:59:28;;;;;;;7.82;7.05;;;9.20;99.90;;;;;;5127180;27;20246;-75
2020/12/16 08:02:11;;;;;;;8.27;7.07;;;9.20;99.90;;;;;;5119880;27;20205;-75
2020/12/16 08:04:38;;;;;;;8.40;6.15;;;9.20;99.90;;;;;;5131039;27;20906;-75
2020/12/16 08:07:16;;;;;;;7.45;6.75;;;9.20;99.90;;;;;;5129725;27;20297;-75
2020/12/16 08:09:55;;;;;;;7.07;6.38;;;9.20;99.90;;;;;;5120149;27;20555;-75
2020/12/16 08:12:22;;;;;;;7.88;6.60;;;9.20;99.90;;;;;;5113638;28;20200;-75
2020/12/16 08:14:49;;;;;;;6.93;6.22;;;9.20;99.90;;;;;;5112804;28;20647;-75
2020/12/16 08:17:15;;;;;;;8.82;7.78;;;9.20;99.90;;;;;;5112991;28;20201;-75
2020/12/16 08:19:41;;;;;;;7.38;6.68;;;9.20;99.90;;;;;;5112298;27;20201;-75
2020/12/16 08:22:15;;;;;;;7.90;7.10;;;9.20;99.90;;;;;;5113175;27;20184;-75
2020/12/16 08:24:42;;;;;;;7.65;6.78;;;9.20;99.90;;;;;;5121036;27;20253;-75
2020/12/16 08:27:09;;;;;;;7.65;6.95;;;9.20;99.90;;;;;;5128448;27;20569;-75
2020/12/16 08:29:37;;;;;;;7.78;6.95;;;9.20;99.90;;;;;;5125673;27;20204;-75
2020/12/16 08:32:05;;;;;;;10.25;7.97;;;9.10;99.90;;;;;;5129696;27;20219;-75
2020/12/16 08:34:40;;;;;;;8.05;6.53;;;9.10;99.90;;;;;;5124771;27;20208;-75
2020/12/16 08:37:10;;;;;;;7.50;6.85;;;9.10;99.90;;;;;;5113234;28;20185;-75
2020/12/16 08:39:42;;;;;;;9.88;7.15;;;9.10;99.90;;;;;;5116683;27;20240;-75
2020/12/16 08:42:11;;;;;;;8.70;7.00;;;9.00;99.90;;;;;;5118618;27;20271;-75
2020/12/16 08:44:37;;;;;;;7.38;6.63;;;9.10;99.90;;;;;;5119427;27;20579;-75
2020/12/16 08:47:04;;;;;;;8.68;7.32;;;9.00;99.90;;;;;;5115359;27;20192;-73
2020/12/16 08:49:31;;;;;;;7.50;5.95;;;9.00;99.90;;;;;;5122264;27;20218;-73
2020/12/16 08:51:57;;;;;;;6.82;5.90;;;8.90;99.90;;;;;;5113013;27;20197;-73
2020/12/16 08:54:26;;;;;;;6.78;6.10;;;8.90;99.90;;;;;;5113141;28;20583;-73
2020/12/16 08:56:53;;;;;;;7.53;5.75;;;8.90;99.90;;;;;;5116494;27;20502;-74
2020/12/16 08:59:25;;;;;;;7.22;5.90;;;8.90;99.90;;;;;;5117290;27;20200;-73
2020/12/16 09:01:53;;;;;;;8.77;6.47;;;8.90;99.90;;;;;;5115770;27;20192;-75
2020/12/16 09:04:25;;;;;;;7.95;7.15;;;9.10;99.90;;;;;;5115989;27;20207;-75
2020/12/16 09:07:05;;;;;;;9.40;7.43;;;9.10;99.90;;;;;;5123930;27;20563;-75
2020/12/16 09:09:32;;;;;;;7.53;6.05;;;9.20;99.90;;;;;;5112789;28;20219;-75
2020/12/16 09:11:58;;;;;;;8.40;6.40;;;9.20;99.90;;;;;;5124579;27;20203;-75
2020/12/16 09:14:26;;;;;;;8.25;6.43;;;9.20;99.90;;;;;;5118631;27;20196;-75
2020/12/16 09:16:52;;;;;;;7.72;6.70;;;9.20;99.90;;;;;;5115503;27;20648;-75
2020/12/16 09:19:21;;;;;;;6.90;6.07;;;9.20;99.90;;;;;;5131271;27;20322;-75
2020/12/16 09:21:48;;;;;;;6.95;5.05;;;9.30;99.90;;;;;;5133628;27;20646;-76
2020/12/16 09:24:19;;;;;;;8.80;5.72;;;9.30;99.90;;;;;;5120977;27;20189;-76
2020/12/16 09:26:47;;;;;;;5.60;5.10;;;9.40;99.90;;;;;;5111920;28;20211;-75
2020/12/16 09:29:15;;;;;;;6.75;6.00;;;9.40;99.90;;;;;;5113947;27;20829;-76
2020/12/16 09:31:42;;;;;;;7.88;5.88;;;9.50;99.90;;;;;;5116585;27;20201;-77
2020/12/16 09:34:09;;;;;;;5.07;4.57;;;9.50;99.90;;;;;;5127197;28;20627;-77
2020/12/16 09:36:35;;;;;;;5.65;4.93;;;9.60;99.90;;;;;;5132015;27;20699;-77
2020/12/16 09:39:05;;;;;;;7.72;6.55;;;9.60;99.90;;;;;;5125040;27;20214;-75
2020/12/16 09:41:42;;;;;;;6.00;5.40;;;9.60;99.90;;;;;;5116818;28;20193;-77
2020/12/16 09:44:26;;;;;;;6.45;5.30;;;9.70;99.90;;;;;;5114509;27;20192;-76
2020/12/16 09:46:53;;;;;;;6.93;6.22;;;9.70;99.90;;;;;;5116118;28;20185;-76
2020/12/16 09:49:21;;;;;;;7.05;5.43;;;9.80;99.90;;;;;;5111912;28;20231;-77
2020/12/16 09:51:48;;;;;;;7.53;5.72;;;9.80;99.90;;;;;;5116083;28;20193;-77
2020/12/16 09:54:30;;;;;;;6.57;5.75;;;9.80;99.90;;;;;;5121625;27;20785;-79
2020/12/16 09:57:10;;;;;;;7.85;5.82;;;9.80;99.90;;;;;;5120781;27;20192;-79
2020/12/16 09:59:37;;;;;;;5.78;5.20;;;9.80;99.90;;;;;;5112284;28;20200;-80
2020/12/16 10:02:04;;;;;;;6.95;6.20;;;9.80;99.90;;;;;;5117959;28;20620;-79
2020/12/16 10:04:31;;;;;;;7.95;6.80;;;9.70;99.90;;;;;;5129455;27;20633;-79
2020/12/16 10:06:57;;;;;;;7.35;5.43;;;9.70;99.90;;;;;;5113633;28;20203;-79
2020/12/16 10:09:23;;;;;;;6.25;5.15;;;9.80;99.90;;;;;;5111944;28;20227;-79
2020/12/16 10:11:50;;;;;;;7.45;6.47;;;9.80;99.90;;;;;;5116410;27;20193;-80
2020/12/16 10:14:17;;;;;;;7.43;5.80;;;9.70;99.90;;;;;;5111732;28;20539;-76
2020/12/16 10:16:47;;;;;;;7.03;6.40;;;9.70;99.90;;;;;;5113291;28;20203;-76
2020/12/16 10:19:16;;;;;;;7.13;6.50;;;9.70;99.90;;;;;;5124450;28;20193;-76
2020/12/16 10:21:42;;;;;;;6.30;5.57;;;9.80;99.90;;;;;;5123533;27;20208;-76
2020/12/16 10:24:09;;;;;;;8.25;6.75;;;9.70;99.90;;;;;;5127758;27;20566;-75
2020/12/16 10:26:35;;;;;;;8.32;5.93;;;9.70;99.90;;;;;;5125363;27;20201;-76
2020/12/16 10:29:01;;;;;;;7.43;6.43;;;9.70;99.90;;;;;;5118456;27;20209;-75
2020/12/16 10:31:28;;;;;;;7.38;6.65;;;9.70;99.90;;;;;;5115421;27;20196;-76
2020/12/16 10:33:54;;;;;;;6.00;5.45;;;9.60;99.90;;;;;;5116320;27;20189;-76
2020/12/16 10:36:21;;;;;;;5.95;5.15;;;9.60;99.90;;;;;;5126302;27;20201;-76
2020/12/16 10:38:48;;;;;;;5.32;4.82;;;9.60;99.90;;;;;;5123234;27;20397;-76
2020/12/16 10:41:14;;;;;;;6.07;5.35;;;9.50;99.90;;;;;;5120995;27;20200;-76
2020/12/16 10:43:40;;;;;;;6.35;5.55;;;9.50;99.90;;;;;;5115441;28;20211;-76
2020/12/16 10:46:08;;;;;;;7.93;6.00;;;9.60;99.90;;;;;;5115577;28;20241;-76
2020/12/16 10:48:34;;;;;;;6.15;5.15;;;9.60;99.90;;;;;;5117983;27;20228;-76
2020/12/16 10:51:01;;;;;;;7.88;5.38;;;9.60;99.90;;;;;;5122039;27;20524;-76
2020/12/16 10:53:28;;;;;;;6.78;5.90;;;9.60;99.90;;;;;;5120548;27;20203;-76
2020/12/16 10:55:56;;;;;;;6.25;5.63;;;9.60;99.90;;;;;;5114694;27;20624;-76
2020/12/16 10:58:23;;;;;;;6.07;4.97;;;9.60;99.90;;;;;;5123014;27;20320;-74
2020/12/16 11:00:49;;;;;;;7.13;4.97;;;9.60;99.90;;;;;;5117392;27;20197;-74
2020/12/16 11:03:15;;;;;;;7.55;6.43;;;9.60;99.90;;;;;;5133912;27;20704;-74
2020/12/16 11:05:42;;;;;;;8.50;5.70;;;9.70;99.90;;;;;;5132884;27;20195;-75
2020/12/16 11:08:08;;;;;;;6.30;5.70;;;9.60;99.90;;;;;;5118099;27;20219;-75
2020/12/16 11:10:34;;;;;;;7.07;6.28;;;9.70;99.90;;;;;;5114572;27;20230;-74
2020/12/16 11:13:02;;;;;;;6.10;5.50;;;9.70;99.90;;;;;;5114674;27;20220;-74
2020/12/16 11:15:29;;;;;;;8.55;5.72;;;9.70;99.90;;;;;;5114280;28;20628;-74
2020/12/16 11:17:55;;;;;;;6.22;5.05;;;9.70;99.90;;;;;;5129456;27;20212;-74
2020/12/16 11:20:22;;;;;;;5.28;4.78;;;9.80;99.90;;;;;;5114588;28;20200;-75
2020/12/16 11:22:48;;;;;;;5.35;4.47;;;9.70;99.90;;;;;;5119610;27;20555;-74
2020/12/16 11:25:14;;;;;;;5.15;4.10;;;9.80;99.90;;;;;;5117291;27;20200;-74
2020/12/16 11:27:41;;;;;;;5.72;5.20;;;9.70;99.90;;;;;;5119993;27;20669;-79
2020/12/16 11:30:07;;;;;;;6.43;5.53;;;9.80;99.90;;;;;;5130271;27;20189;-76
2020/12/16 11:32:34;;;;;;;5.57;4.60;;;9.80;99.90;;;;;;5116926;27;20201;-74
2020/12/16 11:35:01;;;;;;;4.82;4.38;;;9.90;99.90;;;;;;5126364;27;20200;-73
2020/12/16 11:37:27;;;;;;;4.68;4.00;;;9.90;99.90;;;;;;5130678;27;20195;-73
2020/12/16 11:39:56;;;;;;;4.97;4.47;;;9.90;99.90;;;;;;5120255;27;20265;-73
2020/12/16 11:42:22;;;;;;;4.30;3.60;;;9.90;99.90;;;;;;5131287;27;20196;-73
2020/12/16 11:44:49;;;;;;;4.72;4.32;;;9.80;99.90;;;;;;5118855;27;20196;-76
2020/12/16 11:47:15;;;;;;;5.55;4.15;;;9.80;99.90;;;;;;5114976;27;20215;-74
2020/12/16 11:49:43;;;;;;;5.30;4.05;;;9.80;99.90;;;;;;5134979;27;20537;-74
2020/12/16 11:52:09;;;;;;;7.95;4.05;;;9.90;99.90;;;;;;5127246;27;20196;-75
2020/12/16 11:54:35;;;;;;;4.18;3.67;;;9.90;99.90;;;;;;5130356;27;20196;-75
2020/12/16 11:57:02;;;;;;;5.47;3.92;;;9.80;99.90;;;;;;5113982;28;20230;-75
2020/12/16 11:59:28;;;;;;;5.38;4.18;;;9.80;99.90;;;;;;5114203;27;20553;-75
2020/12/16 12:01:56;;;;;;;5.18;4.50;;;9.80;99.90;;;;;;5113533;27;20233;-73
2020/12/16 12:04:23;;;;;;;4.35;3.95;;;9.80;99.90;;;;;;5120674;27;20583;-74
2020/12/16 12:06:50;;;;;;;4.00;3.60;;;9.80;99.90;;;;;;5119670;27;20279;-74
2020/12/16 12:09:16;;;;;;;3.70;3.40;;;9.90;99.90;;;;;;5113465;28;20208;-75
2020/12/16 12:11:44;;;;;;;6.85;3.72;;;9.90;99.90;;;;;;5118231;27;20196;-73
2020/12/16 12:14:11;;;;;;;3.40;3.10;;;9.90;99.90;;;;;;5123094;27;20188;-74
2020/12/16 12:16:37;;;;;;;3.17;2.88;;;9.90;99.90;;;;;;5128315;27;20185;-74
2020/12/16 12:19:03;;;;;;;4.40;3.97;;;9.90;99.90;;;;;;5113059;28;20189;-73
2020/12/16 12:21:29;;;;;;;4.70;4.20;;;9.90;99.90;;;;;;5117002;27;20201;-74
2020/12/16 12:23:57;;;;;;;4.57;4.13;;;9.90;99.90;;;;;;5112976;28;20189;-75
2020/12/16 12:26:23;;;;;;;3.97;3.67;;;9.90;99.90;;;;;;5124817;27;20220;-75
2020/12/16 12:28:49;;;;;;;4.30;3.85;;;9.90;99.90;;;;;;5130528;27;20223;-74
2020/12/16 12:31:15;;;;;;;3.95;3.65;;;9.90;99.90;;;;;;5132888;27;20253;-74
2020/12/16 12:33:42;;;;;;;4.35;3.90;;;9.90;99.90;;;;;;5117141;27;20192;-74
2020/12/16 12:36:08;;;;;;;4.57;4.10;;;9.90;99.90;;;;;;5122887;27;20204;-73
2020/12/16 12:38:35;;;;;;;4.38;3.97;;;9.90;99.90;;;;;;5113299;28;20204;-73
2020/12/16 12:41:02;;;;;;;3.33;3.05;;;9.90;99.90;;;;;;5116688;27;20236;-75
2020/12/16 12:43:28;;;;;;;4.00;3.60;;;9.90;99.90;;;;;;5123360;27;20204;-75
2020/12/16 12:45:55;;;;;;;6.28;3.08;;;9.90;99.90;;;;;;5118075;27;20207;-74
2020/12/16 12:48:21;;;;;;;3.70;3.40;;;9.90;99.90;;;;;;5113321;27;20323;-74
2020/12/16 12:50:47;;;;;;;3.58;3.28;;;9.90;99.90;;;;;;5124077;27;20521;-74
2020/12/16 12:53:13;;;;;;;4.85;4.20;;;10.00;99.90;;;;;;5114123;27;20247;-75
2020/12/16 12:55:41;;;;;;;4.30;3.90;;;10.00;99.90;;;;;;5129092;27;20191;-74
2020/12/16 12:58:08;;;;;;;3.65;3.33;;;10.00;99.90;;;;;;5117805;27;20509;-73